Time;durP1;ratioP1;P1;durP2;ratioP2;P2;SDS_P1;SDS_P2;PMS_P1;PMS_P2;Temp;Humidity;BMP_temperature;BMP_pressure;BME280_temperature;BME280_humidity;BME280_pressure;Samples;Min_cycle;Max_cycle;Signal;HPM_P1;HPM_P2
2022/03/06 00:00:34;;;;;;;16.10;10.30;;;;;;;0.66;44.55;100945.88;107354;1273;95977;-79
2022/03/06 00:03:13;;;;;;;17.00;10.70;;;;;;;0.66;44.67;100949.64;107397;1273;97655;-79
2022/03/06 00:05:42;;;;;;;16.50;10.50;;;;;;;0.65;44.43;100952.88;107335;1273;138010;-79
2022/03/06 00:08:11;;;;;;;15.70;9.60;;;;;;;0.64;44.66;100956.95;107644;1273;109023;-80
2022/03/06 00:10:39;;;;;;;17.20;9.90;;;;;;;0.64;44.89;100956.79;107469;1273;137643;-79
2022/03/06 00:13:08;;;;;;;11.60;8.90;;;;;;;0.66;44.93;100956.99;107624;1273;95923;-79
2022/03/06 00:15:36;;;;;;;12.80;9.50;;;;;;;0.66;44.86;100960.24;107579;1273;95807;-79
2022/03/06 00:18:05;;;;;;;14.90;9.80;;;;;;;0.66;45.02;100961.61;107532;1273;137426;-78
2022/03/06 00:20:34;;;;;;;16.00;9.70;;;;;;;0.63;45.11;100961.23;107604;1273;109044;-80
2022/03/06 00:23:03;;;;;;;14.90;10.00;;;;;;;0.62;45.25;100958.98;107515;1273;138643;-80
2022/03/06 00:25:32;;;;;;;15.60;10.20;;;;;;;0.60;45.33;100955.88;107647;1273;96132;-80
2022/03/06 00:28:00;;;;;;;16.50;10.90;;;;;;;0.61;45.45;100959.30;107269;1273;137821;-80
2022/03/06 00:30:29;;;;;;;14.30;9.90;;;;;;;0.62;45.37;100960.35;107364;1274;111777;-81
2022/03/06 00:32:58;;;;;;;14.00;10.20;;;;;;;0.62;45.41;100964.11;107327;1274;108907;-80
2022/03/06 00:35:28;;;;;;;15.10;10.50;;;;;;;0.62;45.45;100962.40;107259;1273;139695;-80
2022/03/06 00:37:57;;;;;;;13.80;10.30;;;;;;;0.62;45.33;100958.98;107247;1274;96576;-80
2022/03/06 00:40:26;;;;;;;17.20;10.90;;;;;;;0.64;45.23;100957.13;107230;1273;138482;-80
2022/03/06 00:42:55;;;;;;;14.40;10.40;;;;;;;0.62;45.26;100954.36;107313;1273;112465;-80
2022/03/06 00:45:24;;;;;;;16.60;10.40;;;;;;;0.62;45.21;100953.67;107318;1274;109465;-81
2022/03/06 00:47:53;;;;;;;13.30;10.00;;;;;;;0.63;45.17;100954.04;107108;1274;139852;-80
2022/03/06 00:50:22;;;;;;;15.00;10.80;;;;;;;0.65;45.37;100949.45;107237;1274;97551;-80
2022/03/06 00:52:52;;;;;;;14.90;9.90;;;;;;;0.66;44.87;100947.92;107088;1274;162332;-80
2022/03/06 00:55:21;;;;;;;17.80;11.50;;;;;;;0.64;44.55;100944.83;107269;1274;112542;-80
2022/03/06 00:57:49;;;;;;;16.00;10.80;;;;;;;0.65;44.74;100945.02;107223;1274;138140;-77
2022/03/06 01:00:18;;;;;;;17.60;11.20;;;;;;;0.66;44.85;100946.23;107418;1274;109879;-81
2022/03/06 01:02:46;;;;;;;16.20;11.50;;;;;;;0.65;45.02;100943.46;107249;1273;96726;-81
2022/03/06 01:05:16;;;;;;;17.80;11.20;;;;;;;0.63;44.98;100945.82;107212;1274;137843;-83
2022/03/06 01:07:45;;;;;;;18.90;11.30;;;;;;;0.61;45.15;100944.77;107314;1274;112559;-80
2022/03/06 01:10:14;;;;;;;19.50;11.50;;;;;;;0.59;45.27;100939.09;106683;1274;138150;-82
2022/03/06 01:12:42;;;;;;;17.70;11.70;;;;;;;0.59;45.42;100938.73;107235;1274;108766;-81
2022/03/06 01:15:11;;;;;;;16.40;11.20;;;;;;;0.58;45.44;100934.28;107367;1274;96423;-80
2022/03/06 01:17:39;;;;;;;17.60;11.70;;;;;;;0.58;45.19;100928.98;107188;1274;137866;-80
2022/03/06 01:20:10;;;;;;;18.60;12.60;;;;;;;0.58;45.45;100929.48;107258;1274;110347;-81
2022/03/06 01:22:39;;;;;;;21.00;13.10;;;;;;;0.57;45.59;100929.64;107190;1274;139274;-80
2022/03/06 01:25:09;;;;;;;20.50;13.10;;;;;;;0.56;46.08;100925.52;107269;1274;107695;-82
2022/03/06 01:27:37;;;;;;;20.50;13.80;;;;;;;0.55;46.18;100926.02;107181;1274;97855;-81
2022/03/06 01:30:09;;;;;;;19.80;13.30;;;;;;;0.54;45.99;100925.98;105567;1274;138214;-80
2022/03/06 01:32:38;;;;;;;19.50;12.90;;;;;;;0.53;46.33;100926.96;107414;1274;111546;-80
2022/03/06 01:35:08;;;;;;;18.00;12.80;;;;;;;0.52;46.37;100924.56;106049;1274;138089;-79
2022/03/06 01:37:37;;;;;;;20.20;13.10;;;;;;;0.52;46.43;100924.21;107240;1274;107795;-80
2022/03/06 01:40:08;;;;;;;17.90;12.70;;;;;;;0.50;46.45;100922.80;106959;1274;138043;-79
2022/03/06 01:42:41;;;;;;;20.20;12.00;;;;;;;0.50;46.42;100923.15;107246;1274;96446;-80
2022/03/06 01:45:11;;;;;;;16.90;11.30;;;;;;;0.50;46.39;100923.66;107301;1274;112612;-80
2022/03/06 01:47:42;;;;;;;16.00;11.80;;;;;;;0.48;46.53;100924.83;107216;1274;137896;-80
2022/03/06 01:50:15;;;;;;;17.70;12.90;;;;;;;0.48;46.45;100921.23;107263;1274;108286;-80
2022/03/06 01:52:45;;;;;;;15.80;11.20;;;;;;;0.49;46.52;100920.58;107163;1274;137926;-81
2022/03/06 01:55:16;;;;;;;17.00;11.60;;;;;;;0.49;46.30;100919.89;107253;1274;96214;-81
2022/03/06 01:57:46;;;;;;;16.50;11.70;;;;;;;0.48;46.22;100919.36;107335;1274;112708;-82
2022/03/06 02:00:18;;;;;;;16.10;11.80;;;;;;;0.46;46.12;100916.25;105680;1274;138751;-81
2022/03/06 02:02:46;;;;;;;16.40;11.20;;;;;;;0.46;46.19;100916.23;105911;1274;107370;-81
2022/03/06 02:05:15;;;;;;;16.70;10.90;;;;;;;0.48;46.19;100916.44;105955;1274;138192;-82
2022/03/06 02:07:44;;;;;;;13.00;9.40;;;;;;;0.48;46.00;100917.11;105988;1274;97790;-81
2022/03/06 02:10:14;;;;;;;18.10;10.40;;;;;;;0.46;45.56;100912.81;105908;1274;137919;-82
2022/03/06 02:12:43;;;;;;;14.90;10.30;;;;;;;0.45;45.58;100910.90;105904;1274;108933;-81
2022/03/06 02:15:14;;;;;;;13.20;9.70;;;;;;;0.45;45.82;100911.93;107279;1274;108831;-81
2022/03/06 02:17:43;;;;;;;14.60;9.90;;;;;;;0.45;45.89;100905.95;107193;1274;137940;-81
2022/03/06 02:20:14;;;;;;;13.60;9.60;;;;;;;0.44;45.91;100903.89;107253;1274;96554;-81
2022/03/06 02:22:44;;;;;;;12.50;9.10;;;;;;;0.44;45.83;100904.57;107044;1274;138188;-80
2022/03/06 02:25:16;;;;;;;13.00;9.90;;;;;;;0.44;45.96;100901.14;106802;1274;107834;-79
2022/03/06 02:27:45;;;;;;;14.10;10.50;;;;;;;0.44;45.97;100901.84;105669;1274;108520;-79
2022/03/06 02:30:17;;;;;;;13.30;10.20;;;;;;;0.45;46.03;100897.73;107126;1274;139754;-78
2022/03/06 02:32:47;;;;;;;14.40;10.40;;;;;;;0.43;45.91;100893.09;107455;1274;95821;-79
2022/03/06 02:35:18;;;;;;;18.20;10.10;;;;;;;0.43;46.22;100895.14;107473;1274;137748;-79
2022/03/06 02:37:46;;;;;;;15.50;10.70;;;;;;;0.43;46.29;100895.48;107576;1274;107824;-80
2022/03/06 02:40:16;;;;;;;18.50;10.10;;;;;;;0.43;45.95;100894.96;107362;1274;139134;-79
2022/03/06 02:42:47;;;;;;;13.00;9.20;;;;;;;0.43;46.05;100898.05;107223;1274;97849;-79
2022/03/06 02:45:18;;;;;;;14.00;9.70;;;;;;;0.41;45.51;100891.52;107204;1274;96621;-80
2022/03/06 02:47:47;;;;;;;12.40;8.70;;;;;;;0.39;45.77;100894.21;107221;1274;137747;-79
2022/03/06 02:50:20;;;;;;;11.10;7.90;;;;;;;0.38;45.26;100888.90;107243;1274;108687;-79
2022/03/06 02:52:49;;;;;;;11.00;8.20;;;;;;;0.39;45.13;100891.64;107305;1274;139054;-80
2022/03/06 02:55:18;;;;;;;10.00;7.90;;;;;;;0.37;45.16;100885.10;107208;1274;97664;-80
2022/03/06 02:57:47;;;;;;;11.50;8.90;;;;;;;0.36;45.18;100885.40;107310;1274;96532;-79
2022/03/06 03:03:17;;;;;;;14.60;8.90;;;;;;;0.33;45.37;100887.56;102621;1265;104093;-81
2022/03/06 03:05:46;;;;;;;13.00;9.00;;;;;;;0.31;45.63;100887.89;105528;1274;138816;-81
2022/03/06 03:08:15;;;;;;;11.70;9.10;;;;;;;0.31;45.91;100886.69;105667;1274;97874;-81
2022/03/06 03:10:44;;;;;;;12.40;8.60;;;;;;;0.31;45.80;100887.86;105597;1274;137608;-81
2022/03/06 03:13:12;;;;;;;12.60;9.00;;;;;;;0.28;45.82;100886.98;105671;1274;111051;-80
2022/03/06 03:15:41;;;;;;;12.50;9.70;;;;;;;0.29;45.95;100885.80;105729;1274;108360;-82
2022/03/06 03:18:10;;;;;;;12.70;9.30;;;;;;;0.29;45.75;100885.96;105542;1274;137687;-82
2022/03/06 03:20:40;;;;;;;11.70;9.10;;;;;;;0.28;45.51;100885.09;107328;1274;97747;-82
2022/03/06 03:23:09;;;;;;;12.50;9.10;;;;;;;0.26;45.68;100885.39;107133;1274;137842;-82
2022/03/06 03:25:38;;;;;;;11.40;8.30;;;;;;;0.25;45.78;100885.37;107302;1274;111375;-82
2022/03/06 03:28:06;;;;;;;13.00;7.90;;;;;;;0.24;45.72;100884.51;107221;1274;140931;-81
2022/03/06 03:30:35;;;;;;;11.30;7.30;;;;;;;0.25;45.34;100892.56;107255;1274;107977;-81
2022/03/06 03:33:03;;;;;;;9.30;7.00;;;;;;;0.27;45.24;100890.89;107302;1274;97608;-80
2022/03/06 03:35:32;;;;;;;10.30;6.90;;;;;;;0.29;45.10;100889.71;107079;1274;139359;-79
2022/03/06 03:38:01;;;;;;;9.40;6.40;;;;;;;0.27;44.86;100887.14;107301;1274;113089;-80
2022/03/06 03:40:29;;;;;;;9.90;6.70;;;;;;;0.26;44.90;100887.63;107162;1274;138395;-80
2022/03/06 03:42:58;;;;;;;9.20;6.80;;;;;;;0.25;44.68;100890.85;107269;1274;107690;-79
2022/03/06 03:45:26;;;;;;;10.90;6.20;;;;;;;0.26;44.85;100888.13;107230;1274;97443;-79
2022/03/06 03:47:56;;;;;;;11.10;6.40;;;;;;;0.25;44.63;100889.48;107142;1274;138370;-81
2022/03/06 03:50:25;;;;;;;9.20;6.30;;;;;;;0.23;44.18;100886.36;107374;1274;112251;-81
2022/03/06 03:52:53;;;;;;;8.90;6.40;;;;;;;0.21;44.26;100885.65;107157;1274;137445;-81
2022/03/06 03:55:22;;;;;;;11.30;6.90;;;;;;;0.21;44.19;100885.30;107273;1274;107845;-81
2022/03/06 03:57:50;;;;;;;8.00;6.30;;;;;;;0.21;44.35;100886.34;107254;1274;96978;-81
2022/03/06 04:00:19;;;;;;;8.60;6.70;;;;;;;0.23;44.51;100889.10;107158;1274;138395;-82
2022/03/06 04:02:48;;;;;;;10.60;6.80;;;;;;;0.22;44.58;100891.14;107224;1274;111027;-82
2022/03/06 04:05:16;;;;;;;8.60;6.70;;;;;;;0.22;44.74;100889.94;107335;1276;137721;-82
2022/03/06 04:07:45;;;;;;;12.20;7.00;;;;;;;0.23;44.97;100895.60;107456;1276;109008;-81
2022/03/06 04:10:13;;;;;;;10.90;6.70;;;;;;;0.22;44.53;100895.92;107301;1275;138327;-81
2022/03/06 04:12:42;;;;;;;10.80;6.50;;;;;;;0.22;44.63;100896.95;107297;1274;96557;-81
2022/03/06 04:15:10;;;;;;;9.10;6.90;;;;;;;0.22;44.48;100895.24;107173;1277;111457;-82
2022/03/06 04:17:39;;;;;;;8.50;6.30;;;;;;;0.22;44.46;100898.14;107101;1276;137505;-83
2022/03/06 04:20:09;;;;;;;8.10;6.20;;;;;;;0.20;44.24;100895.89;107173;1276;107351;-80
2022/03/06 04:22:38;;;;;;;8.20;6.00;;;;;;;0.20;44.18;100896.58;107127;1276;137624;-82
2022/03/06 04:25:08;;;;;;;10.90;6.70;;;;;;;0.20;44.16;100899.64;107228;1276;96588;-80
2022/03/06 04:27:36;;;;;;;9.70;6.60;;;;;;;0.18;43.89;100901.14;107245;1277;113628;-80
2022/03/06 04:30:07;;;;;;;8.30;6.40;;;;;;;0.19;44.19;100902.72;107084;1277;138074;-80
2022/03/06 04:32:35;;;;;;;9.00;6.10;;;;;;;0.20;44.23;100902.90;107235;1276;108622;-81
2022/03/06 04:35:06;;;;;;;8.90;6.00;;;;;;;0.21;44.20;100903.42;107066;1276;138833;-81
2022/03/06 04:37:35;;;;;;;9.10;6.70;;;;;;;0.21;44.17;100902.75;107312;1276;96329;-81
2022/03/06 04:40:04;;;;;;;8.20;6.60;;;;;;;0.20;44.30;100910.25;107089;1276;138752;-82
2022/03/06 04:42:33;;;;;;;9.40;6.40;;;;;;;0.19;44.48;100906.83;107231;1276;108328;-81
2022/03/06 04:45:02;;;;;;;8.70;6.20;;;;;;;0.20;44.52;100903.92;107163;1276;109250;-81
2022/03/06 04:47:31;;;;;;;9.30;6.70;;;;;;;0.20;44.47;100904.95;107067;1276;137581;-81
2022/03/06 04:50:00;;;;;;;11.30;7.50;;;;;;;0.20;44.67;100900.33;107199;1277;96445;-81
2022/03/06 04:52:28;;;;;;;9.90;7.00;;;;;;;0.20;44.67;100899.14;107032;1276;137662;-80
2022/03/06 04:54:57;;;;;;;10.00;6.90;;;;;;;0.20;44.75;100897.60;107020;1277;110066;-81
2022/03/06 04:57:26;;;;;;;10.50;6.90;;;;;;;0.21;44.56;100900.52;107133;1276;107803;-80
2022/03/06 04:59:54;;;;;;;11.60;6.30;;;;;;;0.22;44.24;100893.87;107088;1276;137721;-81
2022/03/06 05:02:23;;;;;;;10.10;6.40;;;;;;;0.22;44.09;100894.38;107199;1276;96110;-81
2022/03/06 05:04:52;;;;;;;9.30;6.60;;;;;;;0.21;43.96;100890.10;107154;1276;137668;-81
2022/03/06 05:07:21;;;;;;;9.40;6.20;;;;;;;0.22;43.76;100889.27;107434;1276;107776;-81
2022/03/06 05:09:49;;;;;;;8.80;6.20;;;;;;;0.22;43.66;100891.99;107129;1276;108934;-81
2022/03/06 05:12:18;;;;;;;8.10;6.00;;;;;;;0.22;43.35;100892.34;107109;1276;139541;-81
2022/03/06 05:14:46;;;;;;;9.40;5.90;;;;;;;0.22;43.38;100896.60;107141;1276;96001;-81
2022/03/06 05:17:16;;;;;;;9.50;6.60;;;;;;;0.19;43.22;100892.80;107112;1276;141430;-82
2022/03/06 05:19:44;;;;;;;7.20;6.00;;;;;;;0.18;43.34;100898.58;107218;1276;106690;-81
2022/03/06 05:22:13;;;;;;;8.80;6.00;;;;;;;0.20;43.53;100899.48;107121;1276;138530;-81
2022/03/06 05:24:41;;;;;;;10.00;6.40;;;;;;;0.20;43.72;100897.08;107258;1276;97644;-82
2022/03/06 05:27:10;;;;;;;11.40;6.60;;;;;;;0.19;43.81;100891.77;107219;1276;95943;-81
2022/03/06 05:29:38;;;;;;;11.00;6.40;;;;;;;0.18;43.82;100890.68;107133;1276;137589;-80
2022/03/06 05:32:08;;;;;;;9.60;7.10;;;;;;;0.18;43.84;100890.52;107227;1276;109536;-80
2022/03/06 05:34:37;;;;;;;10.90;6.90;;;;;;;0.18;43.68;100886.95;107140;1276;137776;-80
2022/03/06 05:37:05;;;;;;;9.50;6.60;;;;;;;0.20;44.08;100888.88;107173;1276;97834;-80
2022/03/06 05:39:34;;;;;;;10.00;7.10;;;;;;;0.23;44.47;100890.14;106806;1276;97856;-79
2022/03/06 05:42:03;;;;;;;8.30;6.40;;;;;;;0.28;44.03;100888.16;105578;1276;138371;-79
2022/03/06 05:44:32;;;;;;;10.90;6.80;;;;;;;0.30;43.65;100885.30;107248;1276;107638;-79
2022/03/06 05:47:01;;;;;;;9.60;6.40;;;;;;;0.32;43.30;100885.83;107157;1276;138663;-80
2022/03/06 05:49:29;;;;;;;10.40;6.80;;;;;;;0.33;43.24;100888.60;107219;1276;97548;-81
2022/03/06 05:51:58;;;;;;;10.20;7.10;;;;;;;0.35;43.03;100895.84;107210;1276;96370;-81
2022/03/06 05:54:27;;;;;;;8.00;6.10;;;;;;;0.40;43.34;100894.74;105630;1276;137529;-82
2022/03/06 05:56:55;;;;;;;12.70;7.20;;;;;;;0.44;43.60;100893.79;105742;1276;109301;-81
2022/03/06 05:59:24;;;;;;;10.00;7.50;;;;;;;0.50;43.61;100892.36;107095;1276;137090;-84
2022/03/06 06:01:52;;;;;;;13.10;7.60;;;;;;;0.63;43.67;100891.73;107225;1276;96174;-83
2022/03/06 06:04:21;;;;;;;10.40;7.30;;;;;;;0.73;43.78;100889.20;106127;1277;137838;-82
2022/03/06 06:06:50;;;;;;;10.40;7.00;;;;;;;0.81;43.76;100888.30;106449;1276;112477;-83
2022/03/06 06:09:18;;;;;;;10.20;7.30;;;;;;;0.88;43.40;100886.36;107308;1276;105835;-83
2022/03/06 06:11:47;;;;;;;9.40;7.20;;;;;;;0.95;43.22;100884.80;105998;1274;137787;-80
2022/03/06 06:14:15;;;;;;;10.80;7.00;;;;;;;1.00;42.87;100887.77;107365;1276;96210;-81
2022/03/06 06:16:48;;;;;;;8.50;6.00;;;;;;;1.06;42.54;100885.65;106713;1276;137730;-80
2022/03/06 06:19:17;;;;;;;12.40;7.10;;;;;;;1.13;42.46;100882.52;107167;1276;112464;-80
2022/03/06 06:21:46;;;;;;;10.30;6.60;;;;;;;1.21;42.40;100875.78;107231;1275;109460;-81
2022/03/06 06:24:15;;;;;;;9.90;6.90;;;;;;;1.32;42.42;100877.17;107086;1276;138307;-81
2022/03/06 06:26:45;;;;;;;9.60;6.90;;;;;;;1.45;42.30;100874.45;107241;1276;97851;-78
2022/03/06 06:29:14;;;;;;;12.40;7.50;;;;;;;1.65;42.19;100871.48;107199;1274;137482;-79
2022/03/06 06:31:42;;;;;;;10.80;7.20;;;;;;;1.99;41.90;100867.13;107251;1274;111417;-79
2022/03/06 06:34:13;;;;;;;10.70;6.90;;;;;;;2.24;41.73;100862.12;107126;1276;139009;-82
2022/03/06 06:36:41;;;;;;;10.30;7.00;;;;;;;2.48;41.27;100859.47;107185;1276;109995;-80
2022/03/06 06:39:11;;;;;;;8.00;6.40;;;;;;;2.63;40.79;100856.86;107171;1276;97444;-80
2022/03/06 06:41:40;;;;;;;9.60;6.90;;;;;;;2.79;40.53;100859.77;107174;1274;137288;-80
2022/03/06 06:44:09;;;;;;;11.70;7.70;;;;;;;2.94;40.24;100862.14;107248;1276;112517;-80
2022/03/06 06:46:38;;;;;;;10.70;7.20;;;;;;;3.09;39.90;100860.90;107107;1274;138117;-81
2022/03/06 06:49:06;;;;;;;10.90;7.40;;;;;;;3.28;39.82;100861.72;107251;1276;106662;-81
2022/03/06 06:51:35;;;;;;;11.10;6.70;;;;;;;3.75;39.46;100861.33;107182;1276;97485;-81
2022/03/06 06:54:04;;;;;;;8.80;6.50;;;;;;;3.93;38.70;100862.30;107079;1276;138464;-80
2022/03/06 06:56:33;;;;;;;7.20;5.80;;;;;;;4.02;38.51;100861.48;107294;1276;112584;-81
2022/03/06 06:59:01;;;;;;;10.70;6.40;;;;;;;4.27;38.40;100859.84;107121;1276;139812;-79
2022/03/06 07:01:30;;;;;;;9.40;6.60;;;;;;;5.50;37.96;100859.58;107219;1275;109050;-79
2022/03/06 07:03:59;;;;;;;8.60;6.10;;;;;;;7.33;36.81;100848.73;107265;1276;97411;-79
2022/03/06 07:06:27;;;;;;;7.70;5.50;;;;;;;9.04;35.52;100847.64;107112;1276;137536;-78
2022/03/06 07:08:56;;;;;;;7.50;5.60;;;;;;;9.92;34.03;100840.70;107213;1276;112389;-79
2022/03/06 07:11:25;;;;;;;7.90;6.60;;;;;;;10.09;32.68;100837.75;106980;1276;138367;-79
2022/03/06 07:13:53;;;;;;;8.30;5.50;;;;;;;9.58;32.16;100844.46;105782;1276;108954;-79
2022/03/06 07:16:22;;;;;;;9.50;6.00;;;;;;;8.98;31.96;100844.65;105661;1276;138052;-79
2022/03/06 07:18:50;;;;;;;7.20;5.60;;;;;;;8.34;31.82;100845.91;105736;1276;97868;-80
2022/03/06 07:21:19;;;;;;;8.60;6.20;;;;;;;8.37;32.34;100846.40;105743;1276;112509;-80
2022/03/06 07:23:48;;;;;;;8.50;5.70;;;;;;;9.21;32.09;100847.03;105641;1276;137506;-80
2022/03/06 07:26:16;;;;;;;6.90;5.70;;;;;;;9.80;31.67;100844.58;105714;1276;108430;-80
2022/03/06 07:28:45;;;;;;;8.90;5.90;;;;;;;9.60;30.98;100847.21;105710;1276;138001;-80
2022/03/06 07:31:14;;;;;;;9.40;6.80;;;;;;;8.99;30.82;100845.15;105736;1275;97835;-81
2022/03/06 07:33:42;;;;;;;9.80;6.90;;;;;;;8.59;30.95;100847.49;105721;1276;112538;-81
2022/03/06 07:36:11;;;;;;;9.40;6.80;;;;;;;8.19;31.22;100846.45;105661;1276;137753;-82
2022/03/06 07:38:40;;;;;;;9.60;7.50;;;;;;;7.88;31.34;100846.48;105590;1276;108929;-82
2022/03/06 07:41:09;;;;;;;13.20;8.00;;;;;;;7.35;31.23;100849.80;105600;1276;137675;-82
2022/03/06 07:43:38;;;;;;;8.90;7.10;;;;;;;6.98;31.62;100852.90;107327;1276;96233;-80
2022/03/06 07:46:06;;;;;;;8.70;6.60;;;;;;;6.65;31.79;100849.31;107065;1276;139041;-80
2022/03/06 07:48:35;;;;;;;9.60;6.50;;;;;;;6.39;32.11;100855.52;107301;1276;108148;-81
2022/03/06 07:51:04;;;;;;;10.20;7.10;;;;;;;5.99;31.81;100859.15;107173;1276;107652;-82
2022/03/06 07:53:33;;;;;;;10.40;7.30;;;;;;;5.60;32.28;100863.02;107268;1274;138443;-81
2022/03/06 07:56:01;;;;;;;10.00;7.20;;;;;;;5.36;32.51;100856.34;105929;1276;98716;-82
2022/03/06 07:58:30;;;;;;;10.70;7.60;;;;;;;5.30;32.56;100852.90;105803;1276;137709;-82
2022/03/06 08:00:59;;;;;;;10.80;7.80;;;;;;;5.35;32.68;100855.98;105739;1276;109202;-81
2022/03/06 08:03:27;;;;;;;11.70;8.20;;;;;;;5.92;32.74;100848.29;107428;1274;107776;-81
2022/03/06 08:05:56;;;;;;;12.90;7.50;;;;;;;6.13;32.53;100846.85;107346;1276;138029;-82
2022/03/06 08:08:25;;;;;;;11.10;8.00;;;;;;;6.22;32.84;100843.00;107472;1274;96019;-82
2022/03/06 08:10:53;;;;;;;9.60;7.60;;;;;;;6.48;32.27;100845.11;107086;1274;137942;-83
2022/03/06 08:13:22;;;;;;;9.30;7.60;;;;;;;7.25;31.96;100843.67;105932;1275;107388;-81
2022/03/06 08:15:51;;;;;;;8.60;6.70;;;;;;;8.19;31.55;100843.34;107185;1276;108833;-78
2022/03/06 08:18:19;;;;;;;11.50;7.10;;;;;;;9.92;30.95;100843.44;107077;1275;138133;-82
2022/03/06 08:20:48;;;;;;;11.90;7.00;;;;;;;11.14;29.99;100839.01;107222;1276;96565;-80
2022/03/06 08:23:16;;;;;;;8.40;6.70;;;;;;;12.25;29.10;100833.58;107125;1276;140644;-82
2022/03/06 08:25:45;;;;;;;9.10;6.80;;;;;;;12.73;27.98;100839.23;107198;1275;108868;-74
2022/03/06 08:28:14;;;;;;;9.10;6.80;;;;;;;12.39;27.36;100836.98;107073;1276;139202;-82
2022/03/06 08:30:42;;;;;;;10.00;6.90;;;;;;;11.74;27.06;100835.71;107270;1276;96432;-78
2022/03/06 08:33:11;;;;;;;8.60;7.00;;;;;;;11.14;26.65;100842.48;107272;1276;96415;-75
2022/03/06 08:35:40;;;;;;;8.30;6.50;;;;;;;10.54;27.13;100842.72;107064;1276;138254;-80
2022/03/06 08:38:09;;;;;;;10.00;7.00;;;;;;;10.30;27.83;100841.67;105832;1275;109064;-76
2022/03/06 08:40:37;;;;;;;9.00;6.40;;;;;;;9.85;27.76;100847.06;105424;1276;138338;-79
2022/03/06 08:43:06;;;;;;;8.10;6.20;;;;;;;9.32;27.99;100850.67;105612;1276;97843;-77
2022/03/06 08:45:36;;;;;;;9.60;7.30;;;;;;;8.93;28.58;100845.61;105719;1276;97788;-78
2022/03/06 08:48:05;;;;;;;10.70;6.90;;;;;;;8.52;28.61;100845.34;105345;1276;139107;-78
2022/03/06 08:50:34;;;;;;;10.10;7.70;;;;;;;8.05;28.65;100846.27;105601;1276;107755;-78
2022/03/06 08:53:03;;;;;;;11.10;7.30;;;;;;;7.71;29.21;100853.08;105489;1276;138065;-78
2022/03/06 08:55:32;;;;;;;10.30;7.60;;;;;;;7.42;29.46;100851.81;105714;1276;97858;-77
2022/03/06 08:58:00;;;;;;;11.20;8.00;;;;;;;7.25;30.08;100847.83;105749;1276;97842;-81
2022/03/06 09:00:29;;;;;;;9.40;7.30;;;;;;;6.95;29.95;100848.06;105552;1276;138514;-78
2022/03/06 09:02:58;;;;;;;9.80;7.70;;;;;;;6.69;30.21;100847.05;105756;1276;108907;-80
2022/03/06 09:05:27;;;;;;;10.60;7.30;;;;;;;6.55;30.47;100847.83;106990;1275;140100;-82
2022/03/06 09:07:56;;;;;;;9.50;7.30;;;;;;;6.32;30.64;100849.52;107156;1276;96198;-86
2022/03/06 09:10:25;;;;;;;9.50;7.40;;;;;;;6.06;30.75;100850.67;105571;1276;136321;-83
2022/03/06 09:12:54;;;;;;;9.90;7.70;;;;;;;5.74;30.88;100852.13;105733;1275;112032;-86
2022/03/06 09:15:23;;;;;;;11.10;8.00;;;;;;;5.42;31.05;100856.33;105942;1275;107206;-82
2022/03/06 09:17:54;;;;;;;9.80;7.90;;;;;;;5.12;31.57;100854.80;105569;1276;137829;-82
2022/03/06 09:20:24;;;;;;;11.20;8.00;;;;;;;4.96;32.20;100854.29;105619;1276;97948;-82
2022/03/06 09:22:53;;;;;;;10.80;8.10;;;;;;;4.96;32.25;100855.33;107107;1275;138484;-80
2022/03/06 09:25:22;;;;;;;11.10;7.80;;;;;;;5.01;32.61;100853.94;107215;1276;110791;-79
2022/03/06 09:27:50;;;;;;;12.40;8.10;;;;;;;5.16;32.67;100849.29;107197;1276;109401;-80
2022/03/06 09:30:19;;;;;;;11.60;8.00;;;;;;;5.28;32.53;100846.87;107123;1276;137815;-84
2022/03/06 09:32:48;;;;;;;12.20;8.60;;;;;;;5.46;32.71;100843.39;107258;1275;97437;-82
2022/03/06 09:35:17;;;;;;;12.80;7.70;;;;;;;5.78;32.60;100835.38;107237;1276;137716;-84
2022/03/06 09:37:46;;;;;;;12.40;8.10;;;;;;;6.02;32.54;100829.63;107219;1276;112599;-84
2022/03/06 09:40:15;;;;;;;9.90;7.60;;;;;;;6.14;32.40;100830.10;107121;1276;138241;-84
2022/03/06 09:42:43;;;;;;;12.00;8.00;;;;;;;6.27;32.40;100833.83;107241;1274;108920;-83
2022/03/06 09:45:14;;;;;;;13.20;8.30;;;;;;;6.39;32.32;100831.16;107320;1276;96449;-81
2022/03/06 09:47:44;;;;;;;13.10;8.70;;;;;;;6.46;31.99;100829.41;107271;1276;137668;-81
2022/03/06 09:50:15;;;;;;;9.20;6.70;;;;;;;6.60;32.02;100823.95;107127;1276;112697;-83
2022/03/06 09:52:44;;;;;;;8.80;6.90;;;;;;;6.80;31.44;100827.95;107057;1276;138424;-84
2022/03/06 09:55:13;;;;;;;9.20;7.10;;;;;;;6.71;31.15;100824.75;107134;1276;107798;-81
2022/03/06 09:57:41;;;;;;;8.80;7.10;;;;;;;6.60;31.22;100826.36;107195;1276;97544;-79
2022/03/06 10:00:12;;;;;;;10.50;6.70;;;;;;;6.50;31.35;100821.45;107098;1276;137745;-81
2022/03/06 10:02:54;;;;;;;9.70;6.70;;;;;;;6.57;31.72;100817.08;107106;1276;111585;-77
2022/03/06 10:05:34;;;;;;;9.10;7.10;;;;;;;6.85;31.97;100818.59;107359;1276;137757;-76
2022/03/06 10:08:24;;;;;;;8.40;6.90;;;;;;;7.17;32.16;100819.70;107236;1276;108005;-79
2022/03/06 10:10:55;;;;;;;10.60;7.20;;;;;;;7.98;32.68;100814.83;107084;1276;137643;-79
2022/03/06 10:13:28;;;;;;;9.40;6.70;;;;;;;8.63;32.10;100810.67;105866;1276;98117;-80
2022/03/06 10:15:59;;;;;;;7.80;6.40;;;;;;;9.37;31.40;100803.70;105839;1276;111714;-81
2022/03/06 10:18:31;;;;;;;10.60;6.10;;;;;;;10.02;30.30;100797.91;105786;1274;137540;-81
2022/03/06 10:21:10;;;;;;;7.40;5.70;;;;;;;10.64;30.46;100797.60;105848;1276;107910;-79
2022/03/06 10:23:39;;;;;;;6.70;5.30;;;;;;;11.37;29.80;100796.13;107303;1276;138264;-82
2022/03/06 10:26:10;;;;;;;7.70;5.50;;;;;;;11.79;28.62;100792.55;107465;1276;97076;-82
2022/03/06 10:28:47;;;;;;;8.00;5.70;;;;;;;11.83;28.62;100789.83;107277;1276;138279;-81
2022/03/06 10:31:17;;;;;;;7.60;5.40;;;;;;;12.16;28.62;100789.72;107401;1274;107639;-82
2022/03/06 10:33:56;;;;;;;8.20;5.20;;;;;;;12.63;28.84;100790.02;107400;1276;108689;-81
2022/03/06 10:36:34;;;;;;;7.90;4.60;;;;;;;13.04;27.98;100788.14;107216;1276;139769;-83
2022/03/06 10:39:08;;;;;;;8.50;4.90;;;;;;;12.97;27.55;100786.99;107436;1274;96162;-83
2022/03/06 10:41:39;;;;;;;8.50;5.10;;;;;;;12.73;27.36;100782.38;107321;1276;137274;-80
2022/03/06 10:44:09;;;;;;;7.50;5.20;;;;;;;12.40;27.45;100779.59;106447;1276;109098;-79
2022/03/06 10:46:39;;;;;;;7.90;6.10;;;;;;;12.16;27.16;100776.48;105822;1276;138078;-79
2022/03/06 10:49:12;;;;;;;9.60;6.30;;;;;;;11.89;27.19;100772.41;105900;1276;97848;-77
2022/03/06 10:51:44;;;;;;;8.30;6.00;;;;;;;11.60;27.21;100770.08;107318;1276;96204;-79
2022/03/06 10:54:14;;;;;;;9.70;7.00;;;;;;;11.12;27.21;100768.58;105786;1276;137725;-78
2022/03/06 10:56:44;;;;;;;9.30;6.60;;;;;;;10.59;27.18;100768.86;106118;1276;109660;-79
2022/03/06 10:59:21;;;;;;;10.80;6.30;;;;;;;10.11;27.40;100764.90;105836;1276;139933;-79
2022/03/06 11:01:50;;;;;;;7.40;6.20;;;;;;;9.56;27.72;100761.52;105965;1274;97946;-77
2022/03/06 11:04:20;;;;;;;9.70;6.40;;;;;;;9.21;28.05;100761.33;105751;1274;139526;-78
2022/03/06 11:06:51;;;;;;;6.50;5.40;;;;;;;8.86;28.40;100771.65;105719;1276;114500;-80
2022/03/06 11:09:21;;;;;;;9.70;6.20;;;;;;;8.62;28.98;100770.32;105916;1276;109116;-80
2022/03/06 11:11:51;;;;;;;7.70;5.10;;;;;;;8.44;29.39;100769.05;105658;1276;138908;-78
2022/03/06 11:14:19;;;;;;;6.90;5.70;;;;;;;8.21;29.34;100773.49;105825;1275;97845;-79
2022/03/06 11:16:48;;;;;;;10.00;6.10;;;;;;;8.01;29.67;100767.02;105734;1276;137498;-78
2022/03/06 11:19:17;;;;;;;9.00;6.10;;;;;;;7.90;29.98;100760.24;105876;1276;111472;-78
2022/03/06 11:21:50;;;;;;;9.20;5.90;;;;;;;7.88;30.22;100757.30;105815;1276;107910;-78
2022/03/06 11:24:25;;;;;;;7.60;5.40;;;;;;;7.85;30.29;100754.93;105724;1274;137714;-79